createdAt,value
2022-10-05T00:01:29.157Z,8.30
2022-10-05T00:04:10.119Z,8.20
2022-10-05T00:06:36.886Z,8.20
2022-10-05T00:09:13.725Z,8.20
2022-10-05T00:11:40.796Z,8.20
2022-10-05T00:14:21.117Z,8.10
2022-10-05T00:16:48.778Z,8.20
2022-10-05T00:19:23.614Z,8.10
2022-10-05T00:21:50.411Z,8.10
2022-10-05T00:24:20.247Z,8.10
2022-10-05T00:26:47.294Z,8.10
2022-10-05T00:29:22.448Z,8.10
2022-10-05T00:31:50.128Z,8.00
2022-10-05T00:34:17.122Z,8.00
2022-10-05T00:36:45.509Z,8.00
2022-10-05T00:39:12.912Z,7.90
2022-10-05T00:42:00.754Z,7.90
2022-10-05T00:44:46.985Z,7.90
2022-10-05T00:47:51.436Z,7.90
2022-10-05T00:50:36.164Z,7.80
2022-10-05T00:53:29.552Z,7.80
2022-10-05T00:56:11.830Z,7.80
2022-10-05T00:59:20.691Z,7.70
2022-10-05T01:02:12.977Z,7.70
2022-10-05T01:04:55.407Z,7.50
2022-10-05T01:07:59.619Z,7.50
2022-10-05T01:10:52.494Z,7.40
2022-10-05T01:13:37.689Z,7.40
2022-10-05T01:16:33.829Z,7.30
2022-10-05T01:19:31.632Z,7.30
2022-10-05T01:22:07.154Z,7.30
2022-10-05T01:24:44.303Z,7.40
2022-10-05T01:27:39.039Z,7.40
2022-10-05T01:30:12.110Z,7.50
2022-10-05T01:33:02.099Z,7.50
2022-10-05T01:35:46.911Z,7.50
2022-10-05T01:38:40.692Z,7.50
2022-10-05T01:41:16.347Z,7.40
2022-10-05T01:44:14.479Z,7.40
2022-10-05T01:46:50.174Z,7.40
2022-10-05T01:49:31.301Z,7.40
2022-10-05T01:52:35.548Z,7.40
2022-10-05T01:55:28.010Z,7.40
2022-10-05T01:58:39.550Z,7.40
2022-10-05T02:01:16.803Z,7.40
2022-10-05T02:03:50.132Z,7.60
2022-10-05T02:06:26.410Z,7.60
2022-10-05T02:09:08.853Z,7.70
2022-10-05T02:11:37.310Z,7.80
2022-10-05T02:14:12.813Z,7.80
2022-10-05T02:16:47.507Z,7.90
2022-10-05T02:19:41.446Z,7.90
2022-10-05T02:22:11.281Z,7.90
2022-10-05T02:24:50.835Z,7.90
2022-10-05T02:27:30.702Z,7.90
2022-10-05T02:30:03.549Z,8.00
2022-10-05T02:33:03.569Z,8.00
2022-10-05T02:35:31.649Z,8.00
2022-10-05T02:38:08.136Z,8.00
2022-10-05T02:40:51.377Z,8.00
2022-10-05T02:43:41.028Z,8.10
2022-10-05T02:46:15.694Z,8.10
2022-10-05T02:49:01.370Z,8.10
2022-10-05T02:52:03.078Z,8.20
2022-10-05T02:55:00.613Z,8.20
2022-10-05T02:57:42.143Z,8.20
2022-10-05T03:00:24.984Z,8.30
2022-10-05T03:03:33.127Z,8.30
2022-10-05T03:06:08.270Z,8.40
2022-10-05T03:09:02.179Z,8.50
2022-10-05T03:11:48.552Z,8.50
2022-10-05T03:14:25.437Z,8.60
2022-10-05T03:17:12.954Z,8.60
2022-10-05T03:19:49.941Z,8.50
2022-10-05T03:22:38.467Z,8.60
2022-10-05T03:25:35.007Z,8.60
2022-10-05T03:28:19.197Z,8.70
2022-10-05T03:31:11.688Z,8.80
2022-10-05T03:33:46.900Z,8.80
2022-10-05T03:36:53.436Z,8.80
2022-10-05T03:39:35.550Z,8.80
2022-10-05T03:42:16.022Z,8.80
2022-10-05T03:45:24.186Z,8.90
2022-10-05T03:48:08.139Z,8.90
2022-10-05T03:51:05.226Z,9.00
2022-10-05T03:53:40.443Z,9.10
2022-10-05T03:56:20.386Z,9.20
2022-10-05T03:59:13.347Z,9.30
2022-10-05T04:01:47.889Z,9.20
2022-10-05T04:04:24.341Z,9.30
2022-10-05T04:06:53.135Z,9.20
2022-10-05T04:09:39.426Z,9.20
2022-10-05T04:12:21.662Z,9.00
2022-10-05T04:14:54.530Z,8.90
2022-10-05T04:17:44.983Z,9.00
2022-10-05T04:20:23.930Z,9.10
2022-10-05T04:23:07.593Z,9.20
2022-10-05T04:25:41.238Z,9.20
2022-10-05T04:28:32.368Z,9.20
2022-10-05T04:31:03.293Z,9.20
2022-10-05T04:33:32.154Z,9.20
2022-10-05T04:36:04.892Z,9.20
2022-10-05T04:38:47.089Z,9.20
2022-10-05T04:41:31.151Z,9.20
2022-10-05T04:44:44.603Z,9.10
2022-10-05T04:47:27.756Z,9.20
2022-10-05T04:50:17.986Z,9.10
2022-10-05T04:53:22.931Z,9.20
2022-10-05T04:56:01.132Z,9.10
2022-10-05T04:58:44.150Z,9.10
2022-10-05T05:01:37.008Z,9.20
2022-10-05T05:04:35.617Z,9.20
2022-10-05T05:07:15.803Z,9.30
2022-10-05T05:10:12.675Z,9.30
2022-10-05T05:12:49.682Z,9.40
2022-10-05T05:15:21.132Z,9.50
2022-10-05T05:17:59.966Z,9.70
2022-10-05T05:20:48.129Z,9.70
2022-10-05T05:23:27.308Z,9.70
2022-10-05T05:26:12.778Z,9.80
2022-10-05T05:29:14.545Z,9.80
2022-10-05T05:31:48.545Z,9.90
2022-10-05T05:34:29.037Z,9.90
2022-10-05T05:37:13.014Z,9.90
2022-10-05T05:40:16.207Z,10.00
2022-10-05T05:42:57.752Z,10.10
2022-10-05T05:45:39.381Z,10.20
2022-10-05T05:48:18.876Z,10.10
2022-10-05T05:50:59.553Z,10.10
2022-10-05T05:53:37.238Z,10.10
2022-10-05T05:56:10.938Z,10.10
2022-10-05T05:58:41.358Z,10.00
2022-10-05T06:01:32.609Z,10.00
2022-10-05T06:04:14.677Z,10.00
2022-10-05T06:06:48.053Z,10.00
2022-10-05T06:09:35.414Z,10.10
2022-10-05T06:12:12.598Z,10.10
2022-10-05T06:14:54.370Z,10.20
2022-10-05T06:17:34.880Z,10.20
2022-10-05T06:20:05.724Z,10.30
2022-10-05T06:22:43.361Z,10.30
2022-10-05T06:25:13.709Z,10.40
2022-10-05T06:28:13.089Z,10.40
2022-10-05T06:31:12.266Z,10.50
2022-10-05T06:33:51.023Z,10.40
2022-10-05T06:36:46.784Z,10.60
2022-10-05T06:40:00.800Z,10.80
2022-10-05T06:42:48.462Z,10.80
2022-10-05T06:45:53.454Z,10.90
2022-10-05T06:48:44.900Z,11.10
2022-10-05T06:51:29.317Z,11.30
2022-10-05T06:54:33.124Z,11.40
2022-10-05T06:57:20.872Z,11.50
2022-10-05T06:59:51.082Z,11.60
2022-10-05T07:02:55.599Z,11.60
2022-10-05T07:05:57.312Z,11.80
2022-10-05T07:08:52.095Z,11.80
2022-10-05T07:11:51.307Z,11.90
2022-10-05T07:14:39.319Z,12.10
2022-10-05T07:17:32.270Z,12.30
2022-10-05T07:20:17.364Z,12.50
2022-10-05T07:23:32.768Z,12.50
2022-10-05T07:26:21.319Z,12.60
2022-10-05T07:29:23.264Z,12.60
2022-10-05T07:31:59.281Z,12.60
2022-10-05T07:34:46.025Z,12.80
2022-10-05T07:37:38.802Z,12.80
2022-10-05T07:40:15.062Z,12.70
2022-10-05T07:43:13.893Z,12.80
2022-10-05T07:45:59.113Z,12.90
2022-10-05T07:48:48.854Z,13.00
2022-10-05T07:51:21.803Z,13.10
2022-10-05T07:54:23.256Z,13.20
2022-10-05T07:57:14.921Z,13.50
2022-10-05T07:59:56.717Z,13.60
2022-10-05T08:02:33.545Z,13.70
2022-10-05T08:05:11.230Z,13.70
2022-10-05T08:07:39.234Z,13.80
2022-10-05T08:10:22.488Z,13.80
2022-10-05T08:13:07.764Z,13.80
2022-10-05T08:15:43.126Z,13.70
2022-10-05T08:18:46.022Z,13.60
2022-10-05T08:21:16.345Z,13.70
2022-10-05T08:23:51.050Z,13.90
2022-10-05T08:26:22.613Z,14.00
2022-10-05T08:29:10.252Z,14.00
2022-10-05T08:31:44.002Z,13.90
2022-10-05T08:34:26.240Z,14.00
2022-10-05T08:37:13.476Z,14.00
2022-10-05T08:39:50.767Z,14.10
2022-10-05T08:42:32.727Z,14.20
2022-10-05T08:45:40.798Z,14.30
2022-10-05T08:48:34.046Z,14.40
2022-10-05T08:51:14.076Z,14.40
2022-10-05T08:53:57.309Z,14.50
2022-10-05T08:56:43.188Z,14.50
2022-10-05T08:59:43.841Z,14.60
2022-10-05T09:02:40.338Z,14.70
2022-10-05T09:05:36.775Z,14.80
2022-10-05T09:08:37.098Z,14.70
2022-10-05T09:11:20.352Z,14.80
2022-10-05T09:13:53.552Z,15.00
2022-10-05T09:16:35.204Z,15.10
2022-10-05T09:19:36.035Z,15.10
2022-10-05T09:22:24.196Z,14.90
2022-10-05T09:25:00.931Z,15.00
2022-10-05T09:27:39.160Z,15.00
2022-10-05T09:30:32.763Z,15.20
2022-10-05T09:33:28.386Z,15.40
2022-10-05T09:36:18.045Z,15.20
2022-10-05T09:39:18.171Z,15.30
2022-10-05T09:42:06.917Z,15.60
2022-10-05T09:45:21.568Z,15.50
2022-10-05T09:48:11.898Z,15.60
2022-10-05T09:50:40.718Z,15.60
2022-10-05T09:53:23.737Z,15.80
2022-10-05T09:56:11.016Z,15.70
2022-10-05T09:58:48.181Z,16.00
2022-10-05T10:01:40.523Z,15.90
2022-10-05T10:04:24.683Z,15.80
2022-10-05T10:07:28.706Z,15.60
2022-10-05T10:10:29.222Z,16.00
2022-10-05T10:13:25.141Z,16.10
2022-10-05T10:16:00.777Z,16.60
2022-10-05T10:18:42.549Z,17.00
2022-10-05T10:21:29.400Z,16.90
2022-10-05T10:24:04.011Z,17.10
2022-10-05T10:27:01.640Z,16.90
2022-10-05T10:29:52.296Z,17.30
2022-10-05T10:33:01.113Z,17.50
2022-10-05T10:35:37.612Z,17.50
2022-10-05T10:38:13.728Z,17.60
2022-10-05T10:41:05.563Z,17.60
2022-10-05T10:43:47.731Z,17.80
2022-10-05T10:46:48.579Z,17.80
2022-10-05T10:49:40.426Z,17.80
2022-10-05T10:52:29.224Z,17.50
2022-10-05T10:55:14.506Z,17.50
2022-10-05T10:58:13.718Z,17.30
2022-10-05T11:00:42.467Z,17.10
2022-10-05T11:03:30.392Z,17.10
2022-10-05T11:06:20.065Z,17.00
2022-10-05T11:09:14.565Z,17.20
2022-10-05T11:11:53.484Z,17.00
2022-10-05T11:14:38.673Z,17.40
2022-10-05T11:17:31.701Z,17.50
2022-10-05T11:20:19.593Z,17.80
2022-10-05T11:22:54.675Z,18.00
2022-10-05T11:25:57.782Z,17.80
2022-10-05T11:28:35.723Z,17.90
2022-10-05T11:31:17.431Z,17.90
2022-10-05T11:34:17.556Z,18.10
2022-10-05T11:37:03.170Z,18.20
2022-10-05T11:39:43.017Z,18.10
2022-10-05T11:42:57.797Z,18.10
2022-10-05T11:45:43.364Z,18.20
2022-10-05T11:48:28.234Z,18.30
2022-10-05T11:51:17.293Z,18.30
2022-10-05T11:53:57.570Z,18.50
2022-10-05T11:59:13.795Z,18.80
2022-10-05T12:01:43.405Z,18.80
2022-10-05T12:04:16.274Z,18.70
2022-10-05T12:06:49.939Z,18.70
2022-10-05T12:09:31.648Z,18.70
2022-10-05T12:12:14.055Z,18.70
2022-10-05T12:15:04.358Z,18.70
2022-10-05T12:18:00.807Z,18.90
2022-10-05T12:20:40.926Z,18.90
2022-10-05T12:23:34.550Z,18.90
2022-10-05T12:26:06.373Z,18.90
2022-10-05T12:28:57.681Z,19.00
2022-10-05T12:31:43.305Z,19.10
2022-10-05T12:35:01.660Z,19.10
2022-10-05T12:37:43.104Z,19.20
2022-10-05T12:40:43.126Z,19.30
2022-10-05T12:43:33.388Z,19.30
2022-10-05T12:46:23.176Z,19.10
2022-10-05T12:48:58.874Z,19.20
2022-10-05T12:51:44.584Z,19.30
2022-10-05T12:54:52.534Z,19.40
2022-10-05T12:57:35.518Z,19.40
2022-10-05T13:00:12.328Z,19.40
2022-10-05T13:02:59.396Z,19.40
2022-10-05T13:05:44.713Z,19.50
2022-10-05T13:08:40.711Z,19.60
2022-10-05T13:11:30.639Z,19.70
2022-10-05T13:14:35.406Z,19.70
2022-10-05T13:17:25.011Z,19.80
2022-10-05T13:19:58.491Z,19.90
2022-10-05T13:22:42.371Z,20.00
2022-10-05T13:25:29.507Z,20.00
2022-10-05T13:28:02.473Z,19.80
2022-10-05T13:30:30.030Z,19.90
2022-10-05T13:33:04.348Z,20.10
2022-10-05T13:36:00.587Z,20.20
2022-10-05T13:38:46.500Z,20.10
2022-10-05T13:41:47.008Z,20.00
2022-10-05T13:44:19.652Z,20.20
2022-10-05T13:46:59.166Z,20.20
2022-10-05T13:49:37.071Z,20.20
2022-10-05T13:52:22.443Z,20.20
2022-10-05T13:55:00.481Z,20.20
2022-10-05T13:57:57.559Z,20.20
2022-10-05T14:00:27.017Z,20.20
2022-10-05T14:02:57.144Z,20.10
2022-10-05T14:05:29.805Z,20.20
2022-10-05T14:08:15.383Z,20.30
2022-10-05T14:10:45.295Z,20.30
2022-10-05T14:13:21.424Z,20.30
2022-10-05T14:16:06.445Z,20.50
2022-10-05T14:18:36.912Z,20.50
2022-10-05T14:21:13.087Z,20.50
2022-10-05T14:23:40.106Z,20.50
2022-10-05T14:26:32.471Z,20.50
2022-10-05T14:29:16.623Z,20.50
2022-10-05T14:31:59.444Z,20.50
2022-10-05T14:34:59.105Z,20.50
2022-10-05T14:37:32.316Z,20.40
2022-10-05T14:40:20.564Z,20.40
2022-10-05T14:42:47.587Z,20.30
2022-10-05T14:45:17.708Z,20.30
2022-10-05T14:47:53.444Z,20.30
2022-10-05T14:50:29.753Z,20.30
2022-10-05T14:53:19.963Z,20.20
2022-10-05T14:56:24.667Z,20.20
2022-10-05T14:59:16.282Z,20.20
2022-10-05T15:01:53.795Z,20.10
2022-10-05T15:04:39.046Z,20.10
2022-10-05T15:07:13.797Z,20.20
2022-10-05T15:09:57.519Z,20.30
2022-10-05T15:12:43.893Z,20.30
2022-10-05T15:15:44.643Z,20.20
2022-10-05T15:18:29.591Z,20.20
2022-10-05T15:21:23.788Z,20.10
2022-10-05T15:24:00.002Z,20.10
2022-10-05T15:26:38.965Z,19.90
2022-10-05T15:29:14.834Z,19.90
2022-10-05T15:32:14.503Z,19.90
2022-10-05T15:35:06.571Z,19.90
2022-10-05T15:37:42.229Z,19.70
2022-10-05T15:40:32.837Z,19.70
2022-10-05T15:43:17.173Z,19.70
2022-10-05T15:45:57.048Z,19.70
2022-10-05T15:48:49.356Z,19.60
2022-10-05T15:51:27.897Z,19.60
2022-10-05T15:54:42.686Z,19.50
2022-10-05T15:57:21.589Z,19.40
2022-10-05T16:00:12.679Z,19.30
2022-10-05T16:03:18.465Z,19.20
2022-10-05T16:06:10.962Z,19.30
2022-10-05T16:09:00.033Z,19.00
2022-10-05T16:11:36.626Z,18.80
2022-10-05T16:14:15.028Z,18.60
2022-10-05T16:16:44.536Z,18.50
2022-10-05T16:19:39.412Z,18.40
2022-10-05T16:22:43.195Z,18.40
2022-10-05T16:25:28.135Z,18.20
2022-10-05T16:28:29.112Z,18.10
2022-10-05T16:31:31.179Z,18.10
2022-10-05T16:34:23.246Z,18.00
2022-10-05T16:37:03.330Z,17.90
2022-10-05T16:39:52.294Z,17.80
2022-10-05T16:42:37.435Z,17.60
2022-10-05T16:45:22.601Z,17.60
2022-10-05T16:48:03.049Z,17.50
2022-10-05T16:50:49.482Z,17.50
2022-10-05T16:53:21.724Z,17.40
2022-10-05T16:55:53.008Z,17.40
2022-10-05T16:58:45.628Z,17.40
2022-10-05T17:01:15.472Z,17.20
2022-10-05T17:03:54.142Z,17.10
2022-10-05T17:06:39.224Z,17.10
2022-10-05T17:09:18.264Z,17.00
2022-10-05T17:11:58.103Z,16.90
2022-10-05T17:14:39.749Z,16.80
2022-10-05T17:17:17.232Z,16.70
2022-10-05T17:20:08.580Z,16.70
2022-10-05T17:22:48.023Z,16.60
2022-10-05T17:25:42.713Z,16.50
2022-10-05T17:28:21.056Z,16.40
2022-10-05T17:30:58.591Z,16.30
2022-10-05T17:33:30.330Z,16.30
2022-10-05T17:36:03.157Z,16.20
2022-10-05T17:38:35.338Z,16.10
2022-10-05T17:41:22.619Z,16.10
2022-10-05T17:44:19.041Z,16.10
2022-10-05T17:46:50.030Z,16.00
2022-10-05T17:49:25.585Z,16.00
2022-10-05T17:52:10.658Z,15.90
2022-10-05T17:55:04.659Z,15.80
2022-10-05T17:57:33.860Z,15.80
2022-10-05T18:00:27.702Z,15.70
2022-10-05T18:02:58.223Z,15.70
2022-10-05T18:05:29.576Z,15.60
2022-10-05T18:08:11.594Z,15.60
2022-10-05T18:10:58.688Z,15.60
2022-10-05T18:13:49.927Z,15.60
2022-10-05T18:16:54.173Z,15.60
2022-10-05T18:19:22.482Z,15.50
2022-10-05T18:22:27.108Z,15.40
2022-10-05T18:25:03.961Z,15.40
2022-10-05T18:28:02.374Z,15.50
2022-10-05T18:30:53.210Z,15.40
2022-10-05T18:33:44.817Z,15.30
2022-10-05T18:36:44.518Z,15.20
2022-10-05T18:39:42.201Z,15.20
2022-10-05T18:42:35.545Z,15.20
2022-10-05T18:45:27.356Z,15.20
2022-10-05T18:48:12.866Z,15.20
2022-10-05T18:50:45.163Z,15.10
2022-10-05T18:53:19.638Z,15.10
2022-10-05T18:56:13.424Z,15.10
2022-10-05T18:59:06.618Z,15.10
2022-10-05T19:01:59.603Z,15.00
2022-10-05T19:05:07.280Z,15.00
2022-10-05T19:08:08.595Z,15.00
2022-10-05T19:10:55.411Z,15.00
2022-10-05T19:13:29.731Z,14.90
2022-10-05T19:16:29.841Z,14.90
2022-10-05T19:19:13.878Z,14.90
2022-10-05T19:21:46.557Z,14.70
2022-10-05T19:24:52.008Z,14.70
2022-10-05T19:27:38.750Z,14.70
2022-10-05T19:30:18.483Z,14.60
2022-10-05T19:32:54.131Z,14.70
2022-10-05T19:35:36.005Z,14.70
2022-10-05T19:38:20.729Z,14.80
2022-10-05T19:40:53.416Z,14.70
2022-10-05T19:43:55.685Z,14.60
2022-10-05T19:47:00.411Z,14.60
2022-10-05T19:49:37.124Z,14.70
2022-10-05T19:52:11.672Z,14.60
2022-10-05T19:54:38.376Z,14.60
2022-10-05T19:57:17.027Z,14.50
2022-10-05T19:59:47.685Z,14.50
2022-10-05T20:02:16.854Z,14.30
2022-10-05T20:04:45.976Z,14.20
2022-10-05T20:07:16.919Z,14.00
2022-10-05T20:09:59.385Z,14.00
2022-10-05T20:12:55.809Z,13.90
2022-10-05T20:15:47.381Z,13.80
2022-10-05T20:18:54.727Z,13.70
2022-10-05T20:21:41.339Z,13.60
2022-10-05T20:24:18.616Z,13.40
2022-10-05T20:27:05.404Z,13.40
2022-10-05T20:29:39.882Z,13.40
2022-10-05T20:32:15.067Z,13.50
2022-10-05T20:34:44.356Z,13.60
2022-10-05T20:37:13.370Z,13.50
2022-10-05T20:39:40.496Z,13.50
2022-10-05T20:42:08.283Z,13.30
2022-10-05T20:44:36.100Z,13.40
2022-10-05T20:47:03.442Z,13.40
2022-10-05T20:49:35.070Z,13.30
2022-10-05T20:52:02.882Z,13.30
2022-10-05T20:54:29.893Z,13.30
2022-10-05T20:56:56.972Z,13.30
2022-10-05T20:59:25.377Z,13.20
2022-10-05T21:01:52.403Z,13.20
2022-10-05T21:04:23.930Z,13.10
2022-10-05T21:06:50.731Z,13.10
2022-10-05T21:09:19.468Z,13.10
2022-10-05T21:11:48.090Z,13.10
2022-10-05T21:14:14.851Z,13.10
2022-10-05T21:16:42.870Z,13.20
2022-10-05T21:19:14.024Z,13.20
2022-10-05T21:21:42.522Z,13.20
2022-10-05T21:24:09.829Z,13.10
2022-10-05T21:26:37.439Z,13.20
2022-10-05T21:29:07.817Z,13.20
2022-10-05T21:31:37.557Z,13.20
2022-10-05T21:34:04.754Z,13.20
2022-10-05T21:36:32.516Z,13.30
2022-10-05T21:38:59.235Z,13.30
2022-10-05T21:41:25.926Z,13.40
2022-10-05T21:43:52.937Z,13.40
2022-10-05T21:46:22.599Z,13.40
2022-10-05T21:48:49.779Z,13.40
2022-10-05T21:51:18.912Z,13.40
2022-10-05T21:53:53.841Z,13.40
2022-10-05T21:56:23.277Z,13.30
2022-10-05T21:58:51.377Z,13.30
2022-10-05T22:01:22.476Z,13.40
2022-10-05T22:03:49.750Z,13.50
2022-10-05T22:06:16.447Z,13.40
2022-10-05T22:08:43.357Z,13.40
2022-10-05T22:11:13.144Z,13.50
2022-10-05T22:13:43.002Z,13.50
2022-10-05T22:16:10.578Z,13.40
2022-10-05T22:18:37.901Z,13.30
2022-10-05T22:21:06.808Z,13.40
2022-10-05T22:23:35.594Z,13.30
2022-10-05T22:26:03.956Z,13.20
2022-10-05T22:28:32.613Z,13.20
2022-10-05T22:31:03.365Z,13.10
2022-10-05T22:33:30.430Z,13.00
2022-10-05T22:35:59.030Z,13.10
2022-10-05T22:38:26.909Z,13.10
2022-10-05T22:40:53.867Z,12.90
2022-10-05T22:43:20.519Z,12.90
2022-10-05T22:45:47.245Z,12.90
2022-10-05T22:48:14.119Z,12.90
2022-10-05T22:50:44.501Z,12.90
2022-10-05T22:53:11.871Z,12.90
2022-10-05T22:55:38.569Z,12.80
2022-10-05T22:58:05.233Z,12.80
2022-10-05T23:00:56.516Z,12.70
2022-10-05T23:03:18.599Z,12.70
2022-10-05T23:05:45.250Z,12.70
2022-10-05T23:08:11.917Z,12.60
2022-10-05T23:10:38.563Z,12.60
2022-10-05T23:13:06.267Z,12.50
2022-10-05T23:15:34.207Z,12.60
2022-10-05T23:18:00.869Z,12.50
2022-10-05T23:20:27.529Z,12.50
2022-10-05T23:22:54.198Z,12.50
2022-10-05T23:25:22.130Z,12.50
2022-10-05T23:27:49.022Z,12.50
2022-10-05T23:30:15.694Z,12.60
2022-10-05T23:32:44.112Z,12.70
2022-10-05T23:35:12.720Z,12.60
2022-10-05T23:37:44.005Z,12.50
2022-10-05T23:40:14.273Z,12.50
2022-10-05T23:42:41.602Z,12.50
2022-10-05T23:45:10.871Z,12.50
2022-10-05T23:47:38.533Z,12.40
2022-10-05T23:50:06.971Z,12.40
2022-10-05T23:52:35.143Z,12.30
2022-10-05T23:55:05.636Z,12.30
2022-10-05T23:57:32.798Z,12.30
